Time;durP1;ratioP1;P1;durP2;ratioP2;P2;SDS_P1;SDS_P2;PMS_P1;PMS_P2;Temp;Humidity;BMP_temperature;BMP_pressure;BME280_temperature;BME280_humidity;BME280_pressure;Samples;Min_cycle;Max_cycle;Signal;HPM_P1;HPM_P2
2021/11/21 00:01:57;;;;;;;;;43.00;27.50;;;;;9.38;87.61;101429.78;5071469;28;45314;-59
2021/11/21 00:04:22;;;;;;;;;54.00;38.00;;;;;9.37;87.90;101425.47;5077438;27;46504;-60
2021/11/21 00:06:48;;;;;;;;;48.50;39.00;;;;;9.35;87.25;101419.44;5086716;27;45445;-61
2021/11/21 00:09:13;;;;;;;;;39.25;31.75;;;;;9.35;87.64;101420.31;5080866;27;45483;-59
2021/11/21 00:11:39;;;;;;;;;38.25;29.25;;;;;9.37;87.50;101412.50;5079774;27;45523;-59
2021/11/21 00:14:06;;;;;;;;;37.25;30.00;;;;;9.40;87.83;101412.47;5080675;27;46036;-60
2021/11/21 00:16:32;;;;;;;;;42.50;32.00;;;;;9.42;87.02;101406.41;5081157;27;45354;-59
2021/11/21 00:18:58;;;;;;;;;45.50;30.25;;;;;9.38;87.24;101399.50;5080819;27;45160;-59
2021/11/21 00:21:23;;;;;;;;;37.00;26.25;;;;;9.31;87.19;101400.47;5089315;27;45236;-60
2021/11/21 00:23:48;;;;;;;;;33.00;23.50;;;;;9.26;87.32;101394.50;5080819;27;47234;-60
2021/11/21 00:26:14;;;;;;;;;41.00;27.25;;;;;9.29;87.91;101403.97;5080977;27;45329;-60
2021/11/21 00:28:39;;;;;;;;;34.50;24.25;;;;;9.33;87.40;101392.69;5080816;27;45323;-59
2021/11/21 00:31:05;;;;;;;;;31.50;24.25;;;;;9.37;87.41;101384.84;5078828;27;45466;-60
2021/11/21 00:33:32;;;;;;;;;28.50;24.75;;;;;9.39;86.92;101385.66;5078122;27;45763;-60
2021/11/21 00:35:58;;;;;;;;;31.50;25.50;;;;;9.41;87.14;101381.34;5063382;27;45971;-60
2021/11/21 00:38:23;;;;;;;;;36.50;25.75;;;;;9.44;86.59;101386.50;5069518;28;45511;-59
2021/11/21 00:40:49;;;;;;;;;26.50;19.50;;;;;9.46;86.55;101386.47;5068093;28;45728;-57
2021/11/21 00:43:14;;;;;;;;;34.25;25.25;;;;;9.49;86.40;101376.06;5069160;28;45552;-57
2021/11/21 00:45:40;;;;;;;;;31.25;25.00;;;;;9.52;86.48;101369.97;5069376;27;45486;-57
2021/11/21 00:48:05;;;;;;;;;33.25;25.50;;;;;9.54;85.98;101361.28;5065708;28;45483;-57
2021/11/21 00:50:32;;;;;;;;;30.50;25.00;;;;;9.51;85.91;101369.09;5070521;28;45439;-58
2021/11/21 00:53:03;;;;;;;;;32.00;24.50;;;;;9.47;86.34;101367.44;5070691;27;45411;-57
2021/11/21 00:55:34;;;;;;;;;40.00;24.75;;;;;9.47;85.99;101371.75;5070518;27;45274;-58
2021/11/21 00:57:59;;;;;;;;;35.75;21.50;;;;;9.44;86.02;101370.94;5068973;27;45403;-57
2021/11/21 01:00:25;;;;;;;;;37.50;25.25;;;;;9.47;86.31;101366.56;5069756;27;46321;-57
2021/11/21 01:02:50;;;;;;;;;22.00;21.50;;;;;9.53;86.17;101366.47;5068027;28;45518;-57
2021/11/21 01:05:16;;;;;;;;;33.75;24.00;;;;;9.52;86.45;101349.19;5070719;28;45499;-58
2021/11/21 01:07:41;;;;;;;;;37.25;25.50;;;;;9.50;86.30;101361.34;5072186;27;45442;-57
2021/11/21 01:10:10;;;;;;;;;44.75;28.25;;;;;9.44;86.65;101360.53;5068470;27;45488;-57
2021/11/21 01:12:37;;;;;;;;;31.75;25.25;;;;;9.43;86.36;101353.66;5067335;28;47543;-57
2021/11/21 01:15:04;;;;;;;;;37.50;30.75;;;;;9.41;86.70;101352.81;5071325;27;45909;-58
2021/11/21 01:17:30;;;;;;;;;36.25;26.75;;;;;9.38;86.75;101354.56;5068207;27;45449;-57
2021/11/21 01:19:59;;;;;;;;;38.50;27.75;;;;;9.37;87.01;101348.50;5075712;27;45548;-59
2021/11/21 01:22:27;;;;;;;;;33.25;23.75;;;;;9.40;86.58;101356.25;5077551;27;47137;-58
2021/11/21 01:24:53;;;;;;;;;32.75;27.00;;;;;9.41;87.20;101359.69;5077376;27;45662;-59
2021/11/21 01:27:18;;;;;;;;;41.00;28.50;;;;;9.41;86.97;101358.00;5078016;27;45745;-59
2021/11/21 01:29:44;;;;;;;;;31.25;27.00;;;;;9.43;86.76;101356.25;5076779;27;45604;-59
2021/11/21 01:32:09;;;;;;;;;30.25;26.00;;;;;9.45;87.35;101357.06;5077245;27;46214;-59
2021/11/21 01:34:34;;;;;;;;;39.75;29.25;;;;;9.48;86.69;101345.78;5077201;27;45621;-59
2021/11/21 01:37:00;;;;;;;;;39.25;30.00;;;;;9.50;86.69;101353.56;5074571;28;45357;-58
2021/11/21 01:39:25;;;;;;;;;36.25;25.00;;;;;9.48;86.53;101342.34;5079354;27;45325;-58
2021/11/21 01:41:50;;;;;;;;;31.75;26.25;;;;;9.48;86.65;101340.59;5079975;27;46463;-58
2021/11/21 01:44:16;;;;;;;;;38.00;27.00;;;;;9.43;87.01;101340.69;5079873;27;45390;-58
2021/11/21 01:46:43;;;;;;;;;37.75;28.25;;;;;9.49;86.94;101344.06;5080278;27;45395;-58
2021/11/21 01:49:09;;;;;;;;;39.75;29.50;;;;;9.49;86.93;101339.72;5079982;27;45469;-58
2021/11/21 01:51:34;;;;;;;;;37.50;23.50;;;;;9.44;86.88;101337.19;5073063;27;47064;-58
2021/11/21 01:54:00;;;;;;;;;38.50;26.50;;;;;9.40;87.03;101348.47;5079670;27;45312;-58
2021/11/21 01:56:26;;;;;;;;;32.75;27.25;;;;;9.34;87.65;101343.38;5079960;27;45230;-58
2021/11/21 01:58:56;;;;;;;;;44.50;28.25;;;;;9.32;87.73;101345.13;5079888;27;45343;-58
2021/11/21 02:01:23;;;;;;;;;35.25;25.00;;;;;9.32;87.64;101337.34;5078381;27;48029;-58
2021/11/21 02:03:49;;;;;;;;;47.00;29.50;;;;;9.32;87.18;101332.16;5079474;27;45302;-58
2021/11/21 02:06:15;;;;;;;;;43.25;32.75;;;;;9.31;87.38;101333.03;5083764;27;45651;-58
2021/11/21 02:08:41;;;;;;;;;30.50;26.00;;;;;9.30;87.39;101327.88;5084324;27;45453;-57
2021/11/21 02:11:06;;;;;;;;;41.25;31.75;;;;;9.26;87.55;101326.19;5073033;27;46362;-59
2021/11/21 02:13:32;;;;;;;;;36.75;28.75;;;;;9.21;87.63;101326.28;5079846;27;45240;-58
2021/11/21 02:15:58;;;;;;;;;37.75;28.00;;;;;9.18;87.83;101328.88;5084139;27;45449;-58
2021/11/21 02:18:24;;;;;;;;;31.75;26.00;;;;;9.14;88.14;101322.88;5082560;27;45169;-60
2021/11/21 02:20:55;;;;;;;;;33.50;26.50;;;;;9.17;87.75;101318.53;5078414;27;46195;-60
2021/11/21 02:23:23;;;;;;;;;44.50;31.25;;;;;9.22;87.83;101316.75;5081586;27;46045;-60
2021/11/21 02:25:49;;;;;;;;;31.50;23.25;;;;;9.20;88.09;101310.69;5083354;27;45245;-60
2021/11/21 02:28:15;;;;;;;;;37.50;25.25;;;;;9.18;87.73;101309.88;5083114;27;45618;-60
2021/11/21 02:30:40;;;;;;;;;42.50;29.00;;;;;9.21;87.44;101302.94;5081674;27;46775;-60
2021/11/21 02:33:13;;;;;;;;;34.25;20.25;;;;;9.23;87.74;101297.72;5082904;27;45342;-63
2021/11/21 02:35:41;;;;;;;;;38.50;27.50;;;;;9.20;87.91;101300.31;5083039;27;45294;-60
2021/11/21 02:38:08;;;;;;;;;37.00;25.50;;;;;9.20;87.64;101302.91;5077463;27;45334;-60
2021/11/21 02:40:34;;;;;;;;;28.25;21.75;;;;;9.12;87.66;101306.47;5082899;27;46387;-59
2021/11/21 02:42:59;;;;;;;;;31.25;25.25;;;;;9.04;88.54;101291.91;5082646;27;45343;-60
2021/11/21 02:45:26;;;;;;;;;33.75;24.50;;;;;9.02;88.46;101296.25;5082980;27;45576;-60
2021/11/21 02:47:52;;;;;;;;;39.25;26.00;;;;;8.97;88.77;101296.28;5081702;27;45297;-60
2021/11/21 02:50:21;;;;;;;;;41.25;25.25;;;;;8.96;89.13;101291.97;5080498;27;46306;-60
2021/11/21 02:52:47;;;;;;;;;36.00;27.75;;;;;8.99;88.95;101288.50;5074906;27;46374;-60
2021/11/21 02:55:14;;;;;;;;;32.25;27.00;;;;;9.03;88.79;101283.28;5078422;27;45529;-58
2021/11/21 02:57:40;;;;;;;;;33.75;28.25;;;;;9.02;88.13;101278.97;5079971;27;45509;-58
2021/11/21 03:00:08;;;;;;;;;36.50;28.50;;;;;9.05;88.59;101270.28;5079110;27;47828;-58
2021/11/21 03:02:33;;;;;;;;;33.50;27.25;;;;;8.98;88.38;101266.88;5075959;27;45299;-58
2021/11/21 03:04:58;;;;;;;;;44.50;24.50;;;;;8.96;88.70;101271.25;5072063;28;45207;-58
2021/11/21 03:07:24;;;;;;;;;38.25;31.50;;;;;8.91;89.08;101262.66;5088219;27;45624;-58
2021/11/21 03:09:51;;;;;;;;;32.00;27.50;;;;;8.90;89.44;101260.97;5080063;27;46124;-58
2021/11/21 03:12:23;;;;;;;;;32.75;24.25;;;;;8.90;88.74;101260.97;5079867;27;45497;-58
2021/11/21 03:14:50;;;;;;;;;34.00;24.00;;;;;8.92;88.65;101246.25;5081835;27;45287;-58
2021/11/21 03:17:17;;;;;;;;;39.75;27.00;;;;;8.98;88.86;101247.88;5079307;27;45676;-57
2021/11/21 03:19:43;;;;;;;;;38.25;29.00;;;;;9.00;88.73;101247.00;5075975;27;45560;-58
2021/11/21 03:22:08;;;;;;;;;36.50;29.25;;;;;9.01;88.60;101245.25;5081427;27;45354;-57
2021/11/21 03:24:33;;;;;;;;;34.00;26.25;;;;;9.02;88.74;101239.22;5082325;27;45343;-57
2021/11/21 03:26:59;;;;;;;;;41.25;29.25;;;;;9.03;88.26;101241.78;5082002;27;45691;-58
2021/11/21 03:29:24;;;;;;;;;34.50;28.50;;;;;9.03;88.44;101241.78;5093634;27;45616;-57
2021/11/21 03:31:50;;;;;;;;;37.25;25.50;;;;;8.97;89.07;101238.41;5081820;27;45691;-58
2021/11/21 03:34:15;;;;;;;;;42.00;28.00;;;;;8.89;89.23;101235.91;5081584;27;45436;-57
2021/11/21 03:36:41;;;;;;;;;37.75;30.50;;;;;8.82;89.19;101229.97;5081000;27;45619;-58
2021/11/21 03:39:07;;;;;;;;;39.00;26.00;;;;;8.83;89.17;101229.09;5075556;27;45509;-57
2021/11/21 03:41:34;;;;;;;;;44.00;29.00;;;;;8.82;88.93;101222.19;5081728;27;45831;-58
2021/11/21 03:43:59;;;;;;;;;43.75;29.50;;;;;8.85;88.92;101221.28;5082213;27;45227;-58
2021/11/21 03:46:25;;;;;;;;;36.25;27.00;;;;;8.89;89.39;101219.50;5081693;27;45271;-58
2021/11/21 03:48:51;;;;;;;;;39.00;29.25;;;;;8.88;89.53;101225.56;5081756;27;46172;-58
2021/11/21 03:51:16;;;;;;;;;39.25;28.75;;;;;8.85;89.36;101221.28;5081488;27;45377;-58
2021/11/21 03:53:42;;;;;;;;;43.75;27.00;;;;;8.81;89.84;101225.66;5082180;27;45309;-58
2021/11/21 03:56:07;;;;;;;;;40.50;31.00;;;;;8.76;89.91;101230.00;5070954;27;45577;-58
2021/11/21 03:58:32;;;;;;;;;45.25;27.00;;;;;8.71;89.51;101233.53;5073817;27;46976;-58
2021/11/21 04:00:59;;;;;;;;;32.00;25.50;;;;;8.69;90.12;101235.31;5081197;27;45367;-57
2021/11/21 04:03:24;;;;;;;;;41.75;30.25;;;;;8.70;90.47;101240.47;5081932;27;45346;-58
2021/11/21 04:05:49;;;;;;;;;39.25;29.75;;;;;8.70;90.18;101226.66;5081753;27;45331;-58
2021/11/21 04:08:15;;;;;;;;;36.50;29.50;;;;;8.76;90.68;101230.00;5089576;27;45528;-58
2021/11/21 04:10:40;;;;;;;;;43.75;29.00;;;;;8.81;90.62;101223.06;5081401;27;45228;-58
2021/11/21 04:13:06;;;;;;;;;33.50;25.25;;;;;8.82;90.03;101219.59;5081624;27;45143;-58
2021/11/21 04:15:32;;;;;;;;;35.50;27.00;;;;;8.77;90.34;101218.78;5083078;27;45489;-58
2021/11/21 04:17:58;;;;;;;;;34.75;26.25;;;;;8.77;90.77;101212.72;5079703;28;46277;-58
2021/11/21 04:20:25;;;;;;;;;42.00;29.50;;;;;8.73;91.09;101206.75;5076483;27;45721;-58
2021/11/21 04:22:50;;;;;;;;;40.00;27.00;;;;;8.73;90.76;101204.16;5081671;27;45381;-58
2021/11/21 04:25:15;;;;;;;;;34.25;26.50;;;;;8.74;90.85;101198.09;5067434;27;45357;-58
2021/11/21 04:27:41;;;;;;;;;46.00;29.75;;;;;8.78;90.70;101204.94;5081146;27;45453;-58
2021/11/21 04:30:12;;;;;;;;;35.75;26.75;;;;;8.79;90.47;101204.06;5080820;27;45342;-58
2021/11/21 04:32:38;;;;;;;;;38.50;32.00;;;;;8.79;90.66;101200.59;5080757;27;45215;-58
2021/11/21 04:35:09;;;;;;;;;28.25;25.50;;;;;8.78;90.80;101199.75;5080691;27;45285;-58
2021/11/21 04:37:35;;;;;;;;;30.00;23.75;;;;;8.77;91.38;101190.25;5075599;27;46589;-58
2021/11/21 04:40:02;;;;;;;;;30.50;24.50;;;;;8.74;91.49;101186.88;5081179;27;45285;-58
2021/11/21 04:42:27;;;;;;;;;38.25;27.25;;;;;8.75;91.42;101193.75;5081150;27;45326;-58
2021/11/21 04:44:52;;;;;;;;;36.25;27.75;;;;;8.74;91.58;101187.72;5080810;27;45350;-58
2021/11/21 04:47:18;;;;;;;;;33.00;28.50;;;;;8.76;91.25;101185.09;5080963;27;47030;-57
2021/11/21 04:49:43;;;;;;;;;45.25;26.50;;;;;8.82;91.63;101180.72;5080952;27;45294;-58
2021/11/21 04:52:09;;;;;;;;;41.25;31.00;;;;;8.80;90.92;101172.09;5080662;27;45221;-58
2021/11/21 04:54:35;;;;;;;;;32.75;24.25;;;;;8.80;91.31;101171.22;5080703;27;45613;-58
2021/11/21 04:57:00;;;;;;;;;37.75;29.50;;;;;8.73;91.51;101170.47;5080404;27;46233;-58
2021/11/21 04:59:26;;;;;;;;;44.75;26.25;;;;;8.68;91.61;101169.66;5072086;27;45432;-58
2021/11/21 05:01:51;;;;;;;;;34.00;25.25;;;;;8.66;91.93;101170.56;5080689;27;45263;-58
2021/11/21 05:04:17;;;;;;;;;38.75;26.50;;;;;8.64;91.92;101170.59;5079357;28;45592;-58
2021/11/21 05:06:42;;;;;;;;;34.50;28.75;;;;;8.65;91.59;101164.53;5087942;27;45670;-58
2021/11/21 05:09:07;;;;;;;;;34.75;29.75;;;;;8.65;91.87;101163.69;5079370;28;45337;-57
2021/11/21 05:11:33;;;;;;;;;36.00;25.75;;;;;8.64;91.96;101159.38;5080428;27;45427;-57
2021/11/21 05:13:59;;;;;;;;;28.25;25.75;;;;;8.65;91.84;101161.09;5080616;27;45580;-57
2021/11/21 05:16:25;;;;;;;;;30.75;21.75;;;;;8.61;91.95;101152.50;5081674;27;46600;-57
2021/11/21 05:18:50;;;;;;;;;39.25;26.25;;;;;8.59;92.07;101151.63;5078855;28;45452;-58
2021/11/21 05:21:16;;;;;;;;;41.75;28.50;;;;;8.58;91.75;101154.25;5080302;27;45462;-58
2021/11/21 05:23:41;;;;;;;;;43.50;31.75;;;;;8.65;91.89;101150.72;5079996;27;45672;-58
2021/11/21 05:26:06;;;;;;;;;39.00;30.75;;;;;8.70;91.98;101146.34;5080379;27;46493;-58
2021/11/21 05:28:32;;;;;;;;;34.50;22.00;;;;;8.69;91.71;101147.22;5080182;27;45311;-58
2021/11/21 05:30:57;;;;;;;;;31.00;22.50;;;;;8.67;92.16;101143.78;5080493;27;45299;-58
2021/11/21 05:33:22;;;;;;;;;35.75;26.25;;;;;8.68;92.55;101143.75;5080251;27;45508;-59
2021/11/21 05:35:48;;;;;;;;;27.25;18.50;;;;;8.71;91.76;101135.94;5079971;27;45481;-59
2021/11/21 05:38:13;;;;;;;;;34.50;25.00;;;;;8.78;92.37;101144.47;5074350;27;45157;-59
2021/11/21 05:40:39;;;;;;;;;32.00;23.50;;;;;8.75;91.84;101132.44;5080335;27;45229;-59
2021/11/21 05:43:04;;;;;;;;;27.75;21.00;;;;;8.73;91.89;101133.31;5078795;27;45272;-59
2021/11/21 05:45:30;;;;;;;;;31.25;23.50;;;;;8.74;91.77;101135.91;5075136;28;48038;-59
2021/11/21 05:47:57;;;;;;;;;13.75;13.75;;;;;8.70;91.63;101134.22;5078566;27;45304;-58
2021/11/21 05:50:22;;;;;;;;;32.75;21.50;;;;;8.66;91.74;101134.31;5079878;27;45419;-59
2021/11/21 05:52:49;;;;;;;;;32.75;23.75;;;;;8.60;92.20;101142.97;5079913;27;45325;-59
2021/11/21 05:55:17;;;;;;;;;27.25;16.25;;;;;8.65;92.09;101145.53;5080155;27;45434;-59
2021/11/21 05:57:43;;;;;;;;;30.75;24.50;;;;;8.69;92.64;101131.66;5079846;27;45819;-59
2021/11/21 06:00:13;;;;;;;;;31.50;24.00;;;;;8.74;92.20;101135.03;5079861;27;45201;-59
2021/11/21 06:02:39;;;;;;;;;30.50;21.75;;;;;8.71;92.31;101123.00;5073847;27;45892;-59
2021/11/21 06:05:05;;;;;;;;;33.25;27.50;;;;;8.72;92.64;101124.69;5079501;27;46422;-59
2021/11/21 06:07:31;;;;;;;;;29.25;23.25;;;;;8.74;92.38;101124.69;5087227;27;45218;-59
2021/11/21 06:09:56;;;;;;;;;31.50;19.50;;;;;8.77;91.97;101124.63;5079906;27;45243;-59
2021/11/21 06:12:22;;;;;;;;;29.50;21.00;;;;;8.75;92.27;101118.63;5079781;27;45223;-59
2021/11/21 06:14:47;;;;;;;;;35.75;24.75;;;;;8.72;92.45;101122.09;5081358;27;45482;-58
2021/11/21 06:17:12;;;;;;;;;40.00;24.00;;;;;8.71;92.08;101119.53;5079274;27;45225;-58
2021/11/21 06:19:39;;;;;;;;;30.25;18.75;;;;;8.73;92.03;101112.59;5076763;27;45213;-57
2021/11/21 06:22:05;;;;;;;;;27.50;22.75;;;;;8.78;91.60;101118.56;5078043;27;45440;-58
2021/11/21 06:24:30;;;;;;;;;29.50;21.00;;;;;8.82;91.55;101110.75;5079406;27;45567;-57
2021/11/21 06:26:56;;;;;;;;;24.25;21.50;;;;;8.80;91.59;101106.44;5079323;27;45414;-58
2021/11/21 06:29:23;;;;;;;;;23.50;21.00;;;;;8.78;91.39;101105.59;5078674;27;45410;-57
2021/11/21 06:31:49;;;;;;;;;33.50;21.25;;;;;8.78;91.79;101110.78;5078593;27;45320;-57
2021/11/21 06:34:16;;;;;;;;;28.25;21.75;;;;;8.81;92.17;101108.19;5078639;28;46416;-58
2021/11/21 06:36:42;;;;;;;;;22.50;19.50;;;;;8.80;92.58;101111.63;5078385;27;45952;-58
2021/11/21 06:39:08;;;;;;;;;30.25;22.25;;;;;8.82;92.24;101118.53;5074728;27;46335;-58
2021/11/21 06:41:35;;;;;;;;;33.50;22.50;;;;;8.83;92.19;101117.66;5078999;27;45311;-58
2021/11/21 06:44:01;;;;;;;;;31.00;19.25;;;;;8.89;92.26;101116.69;5078249;27;45668;-58
2021/11/21 06:46:26;;;;;;;;;26.25;20.75;;;;;8.92;91.73;101115.78;5079359;28;45315;-58
2021/11/21 06:48:52;;;;;;;;;23.75;20.00;;;;;8.90;91.37;101115.81;5079523;27;45450;-58
2021/11/21 06:51:17;;;;;;;;;30.75;19.75;;;;;8.88;91.93;101111.53;5079137;27;45350;-58
2021/11/21 06:53:46;;;;;;;;;24.00;19.50;;;;;8.88;91.91;101114.97;5079377;27;45346;-57
2021/11/21 06:56:11;;;;;;;;;34.25;24.00;;;;;8.84;92.15;101105.53;5082664;27;45852;-57
2021/11/21 06:58:36;;;;;;;;;28.25;21.75;;;;;8.82;91.40;101110.75;5082938;27;45333;-58
2021/11/21 07:01:02;;;;;;;;;23.50;20.25;;;;;8.81;91.58;101106.44;5082601;27;45515;-57
2021/11/21 07:03:27;;;;;;;;;26.75;22.00;;;;;8.80;92.11;101107.28;5076663;27;45257;-58
2021/11/21 07:05:53;;;;;;;;;30.50;20.25;;;;;8.78;91.65;101105.59;5082977;27;45286;-58
2021/11/21 07:08:18;;;;;;;;;33.00;19.00;;;;;8.76;92.05;101103.03;5088838;27;45437;-58
2021/11/21 07:10:43;;;;;;;;;48.25;37.50;;;;;8.72;92.50;101114.34;5082811;27;45441;-58
2021/11/21 07:13:09;;;;;;;;;30.00;20.50;;;;;8.74;92.05;101109.13;5082148;27;45301;-58
2021/11/21 07:15:34;;;;;;;;;23.50;20.50;;;;;8.80;92.28;101112.47;5083446;27;45465;-58
2021/11/21 07:17:59;;;;;;;;;22.50;17.75;;;;;8.81;91.93;101106.44;5082124;27;45314;-58
2021/11/21 07:20:25;;;;;;;;;19.75;19.00;;;;;8.79;91.58;101103.00;5077177;27;45242;-58
2021/11/21 07:22:52;;;;;;;;;23.50;18.50;;;;;8.77;92.33;101102.16;5082382;27;45598;-59
2021/11/21 07:25:21;;;;;;;;;33.50;23.00;;;;;8.74;92.09;101109.97;5081799;27;45470;-57
2021/11/21 07:27:49;;;;;;;;;29.25;18.50;;;;;8.68;91.93;101111.81;5076475;27;45709;-58
2021/11/21 07:30:17;;;;;;;;;31.00;20.25;;;;;8.67;92.02;101095.41;5081108;27;45417;-58
2021/11/21 07:32:43;;;;;;;;;18.00;16.50;;;;;8.68;92.66;101101.44;5078066;27;45659;-58
2021/11/21 07:35:10;;;;;;;;;19.25;16.00;;;;;8.75;92.27;101098.75;5071080;27;45898;-57
2021/11/21 07:37:36;;;;;;;;;22.25;17.75;;;;;8.80;92.40;101096.94;5067679;28;45347;-58
2021/11/21 07:40:02;;;;;;;;;26.00;16.75;;;;;8.83;92.15;101094.31;5082121;27;45494;-58
2021/11/21 07:42:27;;;;;;;;;23.00;19.50;;;;;8.85;91.81;101096.88;5081713;27;47796;-58
2021/11/21 07:44:53;;;;;;;;;17.25;17.25;;;;;8.86;91.76;101100.34;5081508;27;45291;-58
2021/11/21 07:47:19;;;;;;;;;33.00;22.75;;;;;8.93;92.47;101101.94;5081930;28;45166;-58
2021/11/21 07:49:45;;;;;;;;;26.25;19.00;;;;;8.99;91.93;101097.50;5081941;27;45238;-58
2021/11/21 07:52:10;;;;;;;;;23.25;16.00;;;;;8.99;91.83;101089.75;5081341;27;46281;-58
2021/11/21 07:54:35;;;;;;;;;17.00;14.75;;;;;8.94;91.79;101088.09;5081954;28;45264;-58
2021/11/21 07:57:02;;;;;;;;;25.25;19.00;;;;;8.92;92.17;101092.47;5081683;27;45318;-58
2021/11/21 07:59:28;;;;;;;;;28.00;21.75;;;;;8.96;91.63;101104.50;5081590;27;45436;-58
2021/11/21 08:01:53;;;;;;;;;28.25;18.25;;;;;9.01;92.01;101105.28;5080213;27;46210;-58
2021/11/21 08:04:18;;;;;;;;;17.75;16.00;;;;;9.04;92.12;101095.72;5081679;27;45431;-58
2021/11/21 08:06:44;;;;;;;;;18.00;17.50;;;;;9.10;92.01;101093.03;5074155;27;45524;-58
2021/11/21 08:09:09;;;;;;;;;24.00;16.75;;;;;9.13;91.35;101086.94;5081560;27;45271;-58
2021/11/21 08:11:34;;;;;;;;;22.25;15.50;;;;;9.12;90.99;101085.22;5080217;27;46435;-58
2021/11/21 08:14:00;;;;;;;;;28.25;18.00;;;;;9.08;91.58;101084.44;5080797;27;45440;-58
2021/11/21 08:16:25;;;;;;;;;26.25;17.00;;;;;9.00;91.82;101088.84;5071882;27;45301;-58
2021/11/21 08:18:50;;;;;;;;;24.50;18.00;;;;;8.96;91.96;101084.59;5072007;27;45172;-59
2021/11/21 08:21:16;;;;;;;;;25.00;22.25;;;;;8.93;91.97;101083.81;5071294;28;46734;-59
2021/11/21 08:23:41;;;;;;;;;25.25;18.75;;;;;8.90;92.58;101082.13;5069377;27;45262;-58
2021/11/21 08:26:07;;;;;;;;;26.50;18.25;;;;;8.92;92.38;101082.94;5071460;28;45219;-58
2021/11/21 08:28:32;;;;;;;;;29.50;18.25;;;;;8.91;91.93;101085.56;5074526;27;45615;-58
2021/11/21 08:30:57;;;;;;;;;19.50;17.00;;;;;8.91;92.57;101089.00;5081084;27;46364;-58
2021/11/21 08:33:23;;;;;;;;;18.00;11.50;;;;;8.91;92.28;101093.34;5081108;27;45231;-58
2021/11/21 08:35:49;;;;;;;;;21.00;18.50;;;;;8.89;92.10;101089.91;5068985;27;45458;-58
2021/11/21 08:38:14;;;;;;;;;25.50;17.50;;;;;8.97;92.57;101094.09;5074969;28;45244;-58
2021/11/21 08:40:40;;;;;;;;;24.75;16.25;;;;;9.02;92.31;101088.88;5080673;27;46505;-58
2021/11/21 08:43:06;;;;;;;;;23.25;16.75;;;;;9.06;92.02;101091.38;5069641;27;45356;-59
2021/11/21 08:45:33;;;;;;;;;23.00;16.25;;;;;9.06;92.26;101087.94;5080374;27;45823;-58
2021/11/21 08:48:00;;;;;;;;;27.75;22.00;;;;;9.07;92.06;101092.22;5080527;27;45337;-57
2021/11/21 08:50:26;;;;;;;;;33.75;22.75;;;;;9.13;92.74;101100.75;5080662;27;46315;-57
2021/11/21 08:52:51;;;;;;;;;27.25;19.50;;;;;9.23;92.11;101103.22;5080877;27;45301;-57
2021/11/21 08:55:16;;;;;;;;;23.50;21.75;;;;;9.29;92.07;101083.22;5081027;27;45231;-58
2021/11/21 08:57:42;;;;;;;;;23.75;17.50;;;;;9.37;91.50;101090.88;5080831;27;45303;-58
2021/11/21 09:00:09;;;;;;;;;29.00;15.25;;;;;9.44;91.56;101088.16;5080098;27;46211;-58
2021/11/21 09:02:36;;;;;;;;;24.50;19.75;;;;;9.50;90.83;101087.19;5080692;27;45374;-58
2021/11/21 09:05:06;;;;;;;;;21.50;17.50;;;;;9.51;90.16;101091.50;5080612;27;45308;-57
2021/11/21 09:07:35;;;;;;;;;25.75;17.00;;;;;9.51;90.59;101091.50;5085795;27;45473;-59
2021/11/21 09:10:00;;;;;;;;;25.50;23.75;;;;;9.59;91.14;101075.78;5065561;27;45423;-59
2021/11/21 09:12:26;;;;;;;;;29.50;19.00;;;;;9.66;89.87;101070.47;5069169;27;45372;-60
2021/11/21 09:14:53;;;;;;;;;28.00;21.00;;;;;9.65;90.30;101054.94;5080263;27;45683;-60
2021/11/21 09:17:18;;;;;;;;;19.50;18.00;;;;;9.64;90.00;101063.59;5079531;27;45333;-58
2021/11/21 09:19:44;;;;;;;;;28.50;17.75;;;;;9.70;90.60;101074.72;5076294;27;45499;-60
2021/11/21 09:22:09;;;;;;;;;19.75;14.50;;;;;9.74;89.96;101072.91;5079408;27;45362;-60
2021/11/21 09:24:34;;;;;;;;;28.25;19.00;;;;;9.81;90.24;101087.50;5080192;27;45344;-59
2021/11/21 09:27:00;;;;;;;;;20.25;17.75;;;;;9.85;90.22;101089.16;5079839;27;45244;-60
2021/11/21 09:29:25;;;;;;;;;22.00;18.75;;;;;9.89;89.44;101088.19;5079283;27;45475;-60
2021/11/21 09:31:50;;;;;;;;;22.75;18.00;;;;;9.86;89.26;101093.47;5078534;27;45251;-59
2021/11/21 09:34:16;;;;;;;;;23.75;18.75;;;;;9.81;89.53;101087.50;5078402;27;45215;-61
2021/11/21 09:36:43;;;;;;;;;22.50;18.50;;;;;9.80;89.65;101088.34;5078294;28;45318;-62
2021/11/21 09:39:09;;;;;;;;;31.75;19.00;;;;;9.76;89.61;101097.94;5074366;27;45314;-62
2021/11/21 09:41:35;;;;;;;;;27.00;20.75;;;;;9.76;90.22;101099.69;5079042;27;45180;-61
2021/11/21 09:44:00;;;;;;;;;26.75;20.00;;;;;9.76;89.71;101097.09;5079383;27;45355;-61
2021/11/21 09:46:26;;;;;;;;;31.25;21.00;;;;;9.84;89.94;101094.38;5079811;27;45430;-62
2021/11/21 09:48:52;;;;;;;;;23.75;17.75;;;;;9.89;89.89;101088.19;5079826;27;46157;-60
2021/11/21 09:51:20;;;;;;;;;21.75;15.50;;;;;9.96;89.86;101087.19;5078777;27;45388;-64
2021/11/21 09:53:45;;;;;;;;;27.00;20.00;;;;;10.09;90.10;101092.16;5080178;28;45314;-59
2021/11/21 09:56:11;;;;;;;;;30.00;20.25;;;;;10.17;89.18;101093.69;5079918;27;45595;-60
2021/11/21 09:58:36;;;;;;;;;30.00;22.50;;;;;10.24;88.62;101086.69;5079753;27;45372;-60
2021/11/21 10:01:02;;;;;;;;;29.50;25.25;;;;;10.31;88.72;101090.88;5079645;27;45282;-61
2021/11/21 10:03:28;;;;;;;;;31.50;28.00;;;;;10.37;87.89;101085.53;5077534;27;45411;-62
2021/11/21 10:05:55;;;;;;;;;27.50;19.75;;;;;10.46;88.29;101093.16;5080465;27;45253;-62
2021/11/21 10:08:28;;;;;;;;;24.50;21.00;;;;;10.54;88.32;101079.97;5085679;27;46212;-63
2021/11/21 10:11:00;;;;;;;;;36.00;21.75;;;;;10.68;87.59;101079.69;5074088;28;45287;-63
2021/11/21 10:13:37;;;;;;;;;29.25;23.50;;;;;10.73;87.68;101068.28;5074936;28;45422;-63
2021/11/21 10:16:18;;;;;;;;;35.00;23.00;;;;;10.80;87.17;101067.25;5080421;27;45306;-62
2021/11/21 10:18:49;;;;;;;;;27.25;23.00;;;;;10.79;86.23;101067.28;5078839;27;45460;-62
2021/11/21 10:21:16;;;;;;;;;27.50;21.75;;;;;10.70;86.07;101063.16;5074241;28;45810;-62
2021/11/21 10:23:43;;;;;;;;;31.25;24.00;;;;;10.69;86.98;101077.03;5079100;27;45351;-61
2021/11/21 10:26:20;;;;;;;;;25.75;18.00;;;;;10.65;86.83;101073.66;5079370;27;45530;-61
2021/11/21 10:28:45;;;;;;;;;23.75;21.00;;;;;10.66;86.99;101074.53;5066323;27;46185;-62
2021/11/21 10:31:19;;;;;;;;;31.00;24.50;;;;;10.65;86.99;101068.47;5082618;27;45311;-61
2021/11/21 10:33:55;;;;;;;;;35.25;26.25;;;;;10.59;86.99;101067.72;5083252;27;45370;-60
2021/11/21 10:36:26;;;;;;;;;33.50;23.75;;;;;10.54;87.02;101073.03;5077080;27;45553;-63
2021/11/21 10:38:54;;;;;;;;;29.75;24.25;;;;;10.47;87.42;101062.81;5071798;27;46043;-61
2021/11/21 10:41:44;;;;;;;;;32.50;24.50;;;;;10.43;88.02;101061.19;5070516;27;45773;-65
2021/11/21 10:44:20;;;;;;;;;27.25;23.50;;;;;10.49;87.52;101061.03;5081679;27;45326;-61
2021/11/21 10:46:48;;;;;;;;;28.25;23.50;;;;;10.53;87.36;101053.13;5082492;27;45476;-61
2021/11/21 10:49:13;;;;;;;;;34.50;24.00;;;;;10.52;87.38;101059.22;5082525;27;45400;-59
2021/11/21 10:51:39;;;;;;;;;29.67;22.33;;;;;10.48;87.84;101057.59;5082665;27;45303;-67
2021/11/21 10:54:27;;;;;;;;;26.25;21.50;;;;;10.58;87.59;101058.22;5082700;27;45410;-62
2021/11/21 10:56:57;;;;;;;;;31.75;20.50;;;;;10.63;87.59;101064.19;5077890;28;45224;-61
2021/11/21 10:59:53;;;;;;;;;28.25;23.75;;;;;10.65;87.71;101059.81;5082488;27;46432;-60
2021/11/21 11:02:20;;;;;;;;;24.75;20.25;;;;;10.68;87.47;101057.16;5082308;27;45836;-65
2021/11/21 11:05:12;;;;;;;;;34.25;26.75;;;;;10.65;87.38;101057.22;5070180;27;45392;-63
2021/11/21 11:07:47;;;;;;;;;26.25;19.00;;;;;10.57;87.94;101053.91;5084872;27;45432;-71
2021/11/21 11:10:18;;;;;;;;;30.75;26.00;;;;;10.57;88.16;101052.19;5082120;27;45446;-63
2021/11/21 11:12:52;;;;;;;;;30.75;26.50;;;;;10.65;88.11;101052.88;5082595;27;45580;-62
2021/11/21 11:15:19;;;;;;;;;31.50;22.00;;;;;10.72;87.59;101044.94;5082551;27;45468;-63